createdAt,value
2022-08-22T12:51:55.753Z,30.31
2022-08-22T12:54:51.466Z,31.07
2022-08-22T12:57:33.269Z,31.04
2022-08-22T13:00:16.695Z,30.88
2022-08-22T13:02:53.409Z,30.85
2022-08-22T13:05:28.210Z,30.32
2022-08-22T13:08:04.664Z,30.57
2022-08-22T13:10:50.517Z,31.62
2022-08-22T13:13:37.172Z,32.50
2022-08-22T13:16:08.678Z,32.76
2022-08-22T13:18:53.695Z,32.89
2022-08-22T13:21:25.544Z,32.25
2022-08-22T13:24:10.595Z,30.97
2022-08-22T13:26:51.074Z,29.83
2022-08-22T13:29:26.092Z,29.40
2022-08-22T13:31:58.352Z,29.96
2022-08-22T13:34:43.702Z,30.71
2022-08-22T13:37:24.500Z,30.63
2022-08-22T13:39:54.436Z,29.84
2022-08-22T13:42:29.875Z,29.58
2022-08-22T13:44:59.672Z,29.66
2022-08-22T13:47:31.571Z,29.18
2022-08-22T13:50:19.927Z,28.81
2022-08-22T13:52:58.611Z,28.30
2022-08-22T13:55:35.339Z,27.84
2022-08-22T13:58:22.193Z,27.33
2022-08-22T14:01:13.780Z,26.83
2022-08-22T14:03:56.917Z,26.70
2022-08-22T14:06:41.265Z,26.67
2022-08-22T14:09:41.439Z,26.72
2022-08-22T14:12:14.255Z,27.17
2022-08-22T14:14:46.943Z,27.62
2022-08-22T14:17:18.764Z,27.99
2022-08-22T14:19:59.459Z,28.45
2022-08-22T14:22:34.573Z,28.62
2022-08-22T14:25:17.329Z,28.82
2022-08-22T14:27:49.990Z,28.68
2022-08-22T14:30:30.532Z,28.55
2022-08-22T14:33:16.634Z,28.28
2022-08-22T14:35:52.767Z,27.84
2022-08-22T14:38:31.875Z,27.57
2022-08-22T14:41:09.021Z,27.31
2022-08-22T14:43:57.973Z,27.22
2022-08-22T14:46:42.831Z,27.49
2022-08-22T14:49:20.835Z,27.65
2022-08-22T14:51:58.183Z,28.11
2022-08-22T14:54:29.162Z,28.78
2022-08-22T14:56:56.991Z,29.00
2022-08-22T14:59:50.122Z,29.34
2022-08-22T15:02:30.078Z,29.75
2022-08-22T15:05:05.675Z,30.07
2022-08-22T15:07:34.757Z,31.00
2022-08-22T15:10:06.890Z,31.45
2022-08-22T15:12:47.667Z,31.66
2022-08-22T15:15:52.804Z,32.40
2022-08-22T15:18:20.751Z,32.97
2022-08-22T15:20:52.155Z,32.92
2022-08-22T15:23:21.264Z,32.48
2022-08-22T15:26:00.712Z,32.28
2022-08-22T15:28:28.168Z,31.97
2022-08-22T15:31:16.643Z,32.18
2022-08-22T15:33:45.962Z,31.86
2022-08-22T15:36:16.640Z,31.52
2022-08-22T15:38:52.081Z,30.54
2022-08-22T15:41:36.484Z,29.83
2022-08-22T15:44:21.454Z,28.86
2022-08-22T15:47:02.868Z,28.29
2022-08-22T15:49:32.608Z,27.71
2022-08-22T15:52:00.878Z,27.31
2022-08-22T15:54:46.912Z,27.16
2022-08-22T15:57:40.723Z,27.09
2022-08-22T16:00:55.560Z,27.41
2022-08-22T16:03:22.776Z,27.32
2022-08-22T16:05:55.404Z,26.98
2022-08-22T16:08:28.292Z,26.60
2022-08-22T16:16:29.875Z,27.64
2022-08-22T16:18:56.329Z,28.32
2022-08-22T16:21:22.794Z,28.55
2022-08-22T16:23:56.859Z,28.28
2022-08-22T16:26:30.376Z,27.65
2022-08-22T16:28:59.738Z,26.94
2022-08-22T16:31:32.311Z,26.39
2022-08-22T16:34:23.594Z,26.05
2022-08-22T16:37:08.574Z,26.04
2022-08-22T16:40:06.985Z,26.11
2022-08-22T16:42:39.527Z,25.83
2022-08-22T16:45:13.075Z,25.49
2022-08-22T16:48:05.468Z,25.14
2022-08-22T16:50:37.625Z,24.73
2022-08-22T16:53:45.630Z,24.54
2022-08-22T16:56:27.032Z,24.30
2022-08-22T16:59:38.815Z,24.06
2022-08-22T17:02:23.464Z,23.88
2022-08-22T17:05:08.815Z,23.76
2022-08-22T17:07:38.392Z,23.59
2022-08-22T17:10:22.978Z,23.40
2022-08-22T17:13:01.054Z,23.26
2022-08-22T17:15:49.509Z,23.08
2022-08-22T17:18:35.894Z,22.83
2022-08-22T17:21:26.722Z,22.64
2022-08-22T17:24:33.826Z,22.42
2022-08-22T17:27:03.939Z,22.25
2022-08-22T17:29:49.347Z,22.11
2022-08-22T17:32:22.914Z,21.92
2022-08-22T17:35:14.429Z,21.81
2022-08-22T17:37:54.525Z,21.68
2022-08-22T17:40:45.796Z,21.57
2022-08-22T17:43:17.946Z,21.40
2022-08-22T17:45:44.450Z,21.25
2022-08-22T17:48:31.721Z,21.18
2022-08-22T17:51:33.497Z,21.09
2022-08-22T17:54:15.614Z,21.07
2022-08-22T17:56:46.374Z,21.00
2022-08-22T17:59:21.249Z,20.92
2022-08-22T18:01:47.837Z,20.88
2022-08-22T18:04:23.765Z,20.82
2022-08-22T18:06:56.991Z,20.75
2022-08-22T18:09:31.994Z,20.69
2022-08-22T18:12:05.177Z,20.53
2022-08-22T18:15:08.023Z,20.44
2022-08-22T18:17:47.520Z,20.33
2022-08-22T18:20:24.095Z,20.15
2022-08-22T18:22:55.326Z,20.06
2022-08-22T18:25:22.183Z,19.87
2022-08-22T18:28:00.115Z,19.75
2022-08-22T18:30:31.429Z,19.64
2022-08-22T18:33:22.727Z,19.49
2022-08-22T18:35:53.891Z,19.34
2022-08-22T18:38:39.454Z,19.22
2022-08-22T18:41:11.057Z,19.14
2022-08-22T18:43:48.176Z,19.02
2022-08-22T18:46:41.954Z,-139.39
2022-08-22T18:49:23.635Z,-139.39
2022-08-22T18:52:25.789Z,-139.39
2022-08-22T18:55:15.073Z,-139.39
2022-08-22T18:57:54.138Z,-139.39
2022-08-22T19:00:23.853Z,-139.39
2022-08-22T19:03:26.086Z,-139.39
2022-08-22T19:06:08.311Z,-139.39
2022-08-22T19:08:49.326Z,-139.39
2022-08-22T19:11:57.266Z,-139.39
2022-08-22T19:14:47.029Z,-139.39
2022-08-22T19:17:33.186Z,-139.39
2022-08-22T19:20:27.769Z,-139.39
2022-08-22T19:23:40.408Z,-139.39
2022-08-22T19:26:25.028Z,-139.39
2022-08-22T19:29:06.661Z,-139.39
2022-08-22T19:31:35.389Z,-139.39
2022-08-22T19:34:28.709Z,-139.39
2022-08-22T19:37:30.930Z,-139.39
2022-08-22T19:40:10.742Z,-139.39
2022-08-22T19:42:39.501Z,-139.39
2022-08-22T19:45:18.606Z,-139.39
2022-08-22T19:47:52.303Z,-139.39
2022-08-22T19:50:18.782Z,-139.39
2022-08-22T19:52:54.264Z,-139.39
2022-08-22T19:55:36.741Z,-139.39
2022-08-22T19:58:32.011Z,-139.39
2022-08-22T20:01:09.110Z,-139.39
2022-08-22T20:03:48.385Z,-139.39
2022-08-22T20:06:42.857Z,-139.39
2022-08-22T20:09:12.394Z,-139.39
2022-08-22T20:12:00.954Z,-139.39
2022-08-22T20:14:30.826Z,-139.39
2022-08-22T20:17:06.876Z,-139.39
2022-08-22T20:22:39.176Z,-139.39
2022-08-22T20:25:41.693Z,-139.39
2022-08-22T20:28:08.649Z,-139.39
2022-08-22T20:30:41.872Z,-139.39
2022-08-22T20:33:12.780Z,-139.39
2022-08-22T20:36:27.169Z,-139.39
2022-08-22T20:38:56.975Z,-139.39
2022-08-22T20:41:31.867Z,-139.39
2022-08-22T20:44:38.403Z,-139.39
2022-08-22T20:47:13.156Z,-139.39
2022-08-22T20:50:10.517Z,-139.39
2022-08-22T20:52:42.657Z,-139.39
2022-08-22T20:55:24.060Z,-139.39
2022-08-22T20:58:00.805Z,-139.39
2022-08-22T21:00:33.826Z,-139.39
2022-08-22T21:03:11.873Z,-139.39
2022-08-22T21:05:43.917Z,-139.39
2022-08-22T21:08:18.775Z,-139.39
2022-08-22T21:11:15.365Z,-139.39
2022-08-22T21:13:42.065Z,-139.39
2022-08-22T21:16:13.191Z,-139.39
2022-08-22T21:18:42.729Z,-139.39
2022-08-22T21:21:24.673Z,-139.39
2022-08-22T21:23:59.940Z,-139.39
2022-08-22T21:26:30.905Z,-139.39
2022-08-22T21:29:06.826Z,-139.39
2022-08-22T21:31:36.072Z,-139.39
2022-08-22T21:34:02.811Z,-139.39
2022-08-22T21:36:31.603Z,-139.39
2022-08-22T21:39:04.448Z,-139.39
2022-08-22T21:41:43.588Z,-139.39
2022-08-22T21:44:29.340Z,-139.39
2022-08-22T21:46:56.938Z,-139.39
2022-08-22T21:49:29.240Z,-139.39
2022-08-22T21:51:56.331Z,-139.39
2022-08-22T21:54:26.088Z,-139.39
2022-08-22T21:57:14.379Z,-139.39
2022-08-22T21:59:51.526Z,-139.39
2022-08-22T22:02:45.406Z,-139.39
2022-08-22T22:05:16.220Z,-139.39
2022-08-22T22:07:45.217Z,-139.39
2022-08-22T22:10:15.543Z,-139.39
2022-08-22T22:12:43.325Z,-139.39
2022-08-22T22:15:13.136Z,-139.39
2022-08-22T22:17:39.719Z,-139.39
2022-08-22T22:20:06.880Z,-139.39
2022-08-22T22:22:33.411Z,-139.39
2022-08-22T22:25:04.789Z,-139.39
2022-08-22T22:27:31.809Z,-139.39
2022-08-22T22:29:58.371Z,-139.39
2022-08-22T22:32:24.955Z,-139.39
2022-08-22T22:34:51.529Z,-139.39
2022-08-22T22:37:18.397Z,-139.39
2022-08-22T22:39:45.058Z,-139.39
2022-08-22T22:42:11.985Z,-139.39
2022-08-22T22:44:38.570Z,-139.39
2022-08-22T22:47:05.313Z,-139.39
2022-08-22T22:49:32.757Z,-139.39
2022-08-22T22:52:00.695Z,-139.39
2022-08-22T22:54:27.683Z,-139.39
2022-08-22T22:56:56.399Z,-139.39
2022-08-22T22:59:25.418Z,-139.39
2022-08-22T23:02:21.868Z,-139.39
2022-08-22T23:04:52.852Z,-139.39
2022-08-22T23:07:20.201Z,-139.39
2022-08-22T23:09:46.861Z,-139.39
2022-08-22T23:12:14.598Z,-139.39
2022-08-22T23:14:41.187Z,-139.39
2022-08-22T23:17:08.105Z,-139.39
2022-08-22T23:19:34.943Z,-139.39
2022-08-22T23:22:01.679Z,-139.39
2022-08-22T23:24:31.237Z,-139.39
2022-08-22T23:26:58.613Z,-139.39
2022-08-22T23:29:25.866Z,-139.39
2022-08-22T23:31:54.169Z,-139.39
2022-08-22T23:34:24.249Z,-139.39
2022-08-22T23:36:54.461Z,-139.39
2022-08-22T23:39:22.429Z,-139.39
2022-08-22T23:41:49.248Z,-139.39
2022-08-22T23:44:17.929Z,-139.39
2022-08-22T23:46:44.933Z,-139.39
2022-08-22T23:49:11.890Z,-139.39
2022-08-22T23:51:39.531Z,-139.39
2022-08-22T23:54:06.576Z,-139.39
2022-08-22T23:56:35.618Z,-139.39
2022-08-22T23:59:05.554Z,-139.39
